createdAt,value
2022-08-26T00:02:07.438Z,60.11
2022-08-26T00:04:36.362Z,60.40
2022-08-26T00:07:04.704Z,60.71
2022-08-26T00:09:39.083Z,60.81
2022-08-26T00:12:12.168Z,61.06
2022-08-26T00:14:41.260Z,62.23
2022-08-26T00:17:09.941Z,63.40
2022-08-26T00:19:38.054Z,65.42
2022-08-26T00:22:07.080Z,66.37
2022-08-26T00:24:35.480Z,67.20
2022-08-26T00:27:04.052Z,67.42
2022-08-26T00:29:37.688Z,67.79
2022-08-26T00:32:07.008Z,66.63
2022-08-26T00:34:36.248Z,66.26
2022-08-26T00:37:04.497Z,65.57
2022-08-26T00:39:37.950Z,65.14
2022-08-26T00:42:06.200Z,64.85
2022-08-26T00:44:35.860Z,65.17
2022-08-26T00:47:06.973Z,64.94
2022-08-26T00:49:38.442Z,63.92
2022-08-26T00:52:12.088Z,63.51
2022-08-26T00:54:47.050Z,63.26
2022-08-26T00:57:19.214Z,63.02
2022-08-26T00:59:54.632Z,62.90
2022-08-26T01:02:22.958Z,62.78
2022-08-26T01:04:55.646Z,63.48
2022-08-26T01:07:25.854Z,63.60
2022-08-26T01:09:54.033Z,64.07
2022-08-26T01:12:23.130Z,64.57
2022-08-26T01:14:53.176Z,64.92
2022-08-26T01:17:21.774Z,65.28
2022-08-26T01:19:53.491Z,65.46
2022-08-26T01:22:28.676Z,65.62
2022-08-26T01:25:00.382Z,65.67
2022-08-26T01:27:32.978Z,66.99
2022-08-26T01:30:03.710Z,68.06
2022-08-26T01:32:34.524Z,67.93
2022-08-26T01:35:03.990Z,68.38
2022-08-26T01:37:39.010Z,68.43
2022-08-26T01:40:17.857Z,69.07
2022-08-26T01:42:49.238Z,68.81
2022-08-26T01:45:20.985Z,68.27
2022-08-26T01:47:56.510Z,68.02
2022-08-26T01:50:30.725Z,68.06
2022-08-26T01:53:02.702Z,67.76
2022-08-26T01:55:34.200Z,67.90
2022-08-26T01:58:06.551Z,67.69
2022-08-26T02:00:35.336Z,67.65
2022-08-26T02:03:18.051Z,67.33
2022-08-26T02:05:48.730Z,67.06
2022-08-26T02:08:24.802Z,67.27
2022-08-26T02:10:56.001Z,67.47
2022-08-26T02:13:27.536Z,67.50
2022-08-26T02:15:56.278Z,67.35
2022-08-26T02:18:26.492Z,67.67
2022-08-26T02:20:57.110Z,67.56
2022-08-26T02:23:26.029Z,67.60
2022-08-26T02:26:02.229Z,67.64
2022-08-26T02:28:36.934Z,68.01
2022-08-26T02:31:05.042Z,67.86
2022-08-26T02:33:33.247Z,67.88
2022-08-26T02:36:04.077Z,68.41
2022-08-26T02:38:32.092Z,68.60
2022-08-26T02:41:01.627Z,68.43
2022-08-26T02:43:31.622Z,68.63
2022-08-26T02:46:02.319Z,67.71
2022-08-26T02:48:31.238Z,67.15
2022-08-26T02:51:01.926Z,67.36
2022-08-26T02:53:31.970Z,66.72
2022-08-26T02:56:05.293Z,67.15
2022-08-26T03:01:01.742Z,68.01
2022-08-26T03:03:33.665Z,68.88
2022-08-26T03:06:01.996Z,67.95
2022-08-26T03:08:30.381Z,67.06
2022-08-26T03:10:58.204Z,65.98
2022-08-26T03:13:31.032Z,65.65
2022-08-26T03:16:02.439Z,65.98
2022-08-26T03:18:30.795Z,65.53
2022-08-26T03:20:59.194Z,66.52
2022-08-26T03:23:27.174Z,67.54
2022-08-26T03:25:57.025Z,69.09
2022-08-26T03:28:27.289Z,69.83
2022-08-26T03:30:56.025Z,70.25
2022-08-26T03:33:24.413Z,70.19
2022-08-26T03:35:53.734Z,70.59
2022-08-26T03:38:25.273Z,71.38
2022-08-26T03:40:53.620Z,72.02
2022-08-26T03:43:22.525Z,72.74
2022-08-26T03:45:51.289Z,72.35
2022-08-26T03:48:20.658Z,71.51
2022-08-26T03:50:48.804Z,71.56
2022-08-26T03:53:20.543Z,71.25
2022-08-26T03:55:52.026Z,70.85
2022-08-26T03:58:20.920Z,71.65
2022-08-26T04:00:49.533Z,72.62
2022-08-26T04:03:38.756Z,73.30
2022-08-26T04:06:07.514Z,74.50
2022-08-26T04:08:35.831Z,74.76
2022-08-26T04:11:04.323Z,73.84
2022-08-26T04:13:33.751Z,73.73
2022-08-26T04:16:01.557Z,73.49
2022-08-26T04:18:37.047Z,72.97
2022-08-26T04:21:07.924Z,72.10
2022-08-26T04:23:47.166Z,72.24
2022-08-26T04:26:16.436Z,71.52
2022-08-26T04:28:45.235Z,71.15
2022-08-26T04:31:14.754Z,70.33
2022-08-26T04:33:45.758Z,70.05
2022-08-26T04:36:15.394Z,69.54
2022-08-26T04:38:43.308Z,68.65
2022-08-26T04:41:15.582Z,68.51
2022-08-26T04:43:45.455Z,68.42
2022-08-26T04:46:17.444Z,67.84
2022-08-26T04:48:49.146Z,67.67
2022-08-26T04:51:17.694Z,67.88
2022-08-26T04:53:46.351Z,67.49
2022-08-26T04:56:14.447Z,67.50
2022-08-26T04:58:42.471Z,67.80
2022-08-26T05:01:10.710Z,67.42
2022-08-26T05:03:39.014Z,67.39
2022-08-26T05:06:12.434Z,67.03
2022-08-26T05:08:41.034Z,66.31
2022-08-26T05:11:10.883Z,64.91
2022-08-26T05:13:39.576Z,63.69
2022-08-26T05:16:09.522Z,63.31
2022-08-26T05:18:41.325Z,62.63
2022-08-26T05:21:20.409Z,61.92
2022-08-26T05:23:51.421Z,62.00
2022-08-26T05:26:20.246Z,61.88
2022-08-26T05:28:54.718Z,60.17
2022-08-26T05:31:25.633Z,60.26
2022-08-26T05:33:53.766Z,58.77
2022-08-26T05:36:26.994Z,58.06
2022-08-26T05:38:55.620Z,56.73
2022-08-26T05:41:34.483Z,55.97
2022-08-26T05:44:07.436Z,55.86
2022-08-26T05:46:37.818Z,58.18
2022-08-26T05:49:12.791Z,61.55
2022-08-26T05:51:46.410Z,63.68
2022-08-26T05:54:21.728Z,63.07
2022-08-26T05:56:51.219Z,63.53
2022-08-26T05:59:24.130Z,63.44
2022-08-26T06:01:54.839Z,63.03
2022-08-26T06:04:27.515Z,61.61
2022-08-26T06:06:59.919Z,62.74
2022-08-26T06:09:28.462Z,63.83
2022-08-26T06:11:59.067Z,64.26
2022-08-26T06:14:27.039Z,65.78
2022-08-26T06:16:55.364Z,67.54
2022-08-26T06:19:24.318Z,68.94
2022-08-26T06:21:54.711Z,69.74
2022-08-26T06:24:42.257Z,69.63
2022-08-26T06:27:13.925Z,68.33
2022-08-26T06:29:43.601Z,68.37
2022-08-26T06:32:11.604Z,66.74
2022-08-26T06:34:39.674Z,66.97
2022-08-26T06:37:08.925Z,67.53
2022-08-26T06:39:41.210Z,68.61
2022-08-26T06:42:10.811Z,69.13
2022-08-26T06:44:40.912Z,68.30
2022-08-26T06:47:09.157Z,67.17
2022-08-26T06:49:38.290Z,65.65
2022-08-26T06:52:07.850Z,64.74
2022-08-26T07:52:26.670Z,44.72
2022-08-26T07:54:58.008Z,45.48
2022-08-26T07:57:26.508Z,44.81
2022-08-26T07:59:55.737Z,44.29
2022-08-26T08:02:25.556Z,45.38
2022-08-26T08:04:54.722Z,45.06
2022-08-26T08:07:38.385Z,43.09
2022-08-26T08:10:15.123Z,40.99
2022-08-26T08:12:44.020Z,42.95
2022-08-26T08:15:13.965Z,43.81
2022-08-26T08:17:43.934Z,45.16
2022-08-26T08:20:14.809Z,43.27
2022-08-26T08:22:43.651Z,42.18
2022-08-26T08:25:13.870Z,41.45
2022-08-26T08:27:45.216Z,41.91
2022-08-26T08:30:14.285Z,41.53
2022-08-26T08:32:44.673Z,42.83
2022-08-26T08:35:15.617Z,43.61
2022-08-26T08:37:45.327Z,41.52
2022-08-26T08:40:18.631Z,39.20
2022-08-26T08:45:26.638Z,38.68
2022-08-26T08:47:57.997Z,39.49
2022-08-26T08:50:31.005Z,38.83
2022-08-26T08:53:05.780Z,37.00
2022-08-26T08:55:48.868Z,36.47
2022-08-26T08:58:20.601Z,38.74
2022-08-26T09:00:59.217Z,38.39
2022-08-26T09:03:46.636Z,41.62
2022-08-26T09:06:19.008Z,41.50
2022-08-26T09:08:50.120Z,41.72
2022-08-26T09:11:21.328Z,40.40
2022-08-26T09:13:53.932Z,39.76
2022-08-26T09:16:27.577Z,39.56
2022-08-26T09:19:07.134Z,39.39
2022-08-26T09:21:35.852Z,39.13
2022-08-26T09:24:04.858Z,37.78
2022-08-26T09:26:47.404Z,37.52
2022-08-26T09:29:24.467Z,38.44
2022-08-26T09:31:54.100Z,37.55
2022-08-26T09:34:25.092Z,36.94
2022-08-26T09:36:55.215Z,36.30
2022-08-26T09:39:31.715Z,35.98
2022-08-26T09:42:11.242Z,36.50
2022-08-26T09:45:00.224Z,37.62
2022-08-26T09:47:32.011Z,38.50
2022-08-26T09:50:09.668Z,40.34
2022-08-26T09:52:38.109Z,40.31
2022-08-26T09:55:13.698Z,41.05
2022-08-26T09:57:52.180Z,41.43
2022-08-26T10:00:33.498Z,41.84
2022-08-26T10:03:03.749Z,43.21
2022-08-26T10:05:38.279Z,44.20
2022-08-26T10:08:23.044Z,45.22
2022-08-26T10:10:53.287Z,43.97
2022-08-26T10:13:29.581Z,43.78
2022-08-26T10:16:10.638Z,44.88
2022-08-26T10:18:43.917Z,45.84
2022-08-26T10:21:19.978Z,46.40
2022-08-26T10:23:53.029Z,46.27
2022-08-26T10:26:26.583Z,44.94
2022-08-26T10:29:06.506Z,44.88
2022-08-26T10:31:40.949Z,46.69
2022-08-26T10:34:12.481Z,50.13
2022-08-26T10:37:14.844Z,52.17
2022-08-26T10:39:49.695Z,55.05
2022-08-26T10:42:31.111Z,53.10
2022-08-26T10:45:11.802Z,51.27
2022-08-26T10:47:48.893Z,50.39
2022-08-26T10:50:18.858Z,53.57
2022-08-26T10:53:01.347Z,53.52
2022-08-26T10:55:36.592Z,56.30
2022-08-26T10:58:26.405Z,57.12
2022-08-26T11:01:22.819Z,58.64
2022-08-26T11:03:59.539Z,59.10
2022-08-26T11:06:30.044Z,58.17
2022-08-26T11:09:01.029Z,57.18
2022-08-26T11:11:51.811Z,56.15
2022-08-26T11:14:41.030Z,55.09
2022-08-26T11:17:55.709Z,54.02
2022-08-26T11:20:37.298Z,54.58
2022-08-26T11:23:50.460Z,54.31
2022-08-26T11:26:35.433Z,51.82
2022-08-26T11:29:11.967Z,51.88
2022-08-26T11:31:57.120Z,51.38
2022-08-26T11:34:56.379Z,49.16
2022-08-26T11:37:32.466Z,48.26
2022-08-26T11:40:03.205Z,46.86
2022-08-26T11:42:37.797Z,45.27
2022-08-26T11:45:20.480Z,45.03
2022-08-26T11:47:51.227Z,47.57
2022-08-26T11:50:21.207Z,48.70
2022-08-26T11:53:01.860Z,47.56
2022-08-26T11:55:31.858Z,46.71
2022-08-26T11:58:02.422Z,48.44
2022-08-26T12:00:36.275Z,44.08
2022-08-26T12:03:09.378Z,41.20
2022-08-26T12:05:43.618Z,40.30
2022-08-26T12:08:19.520Z,38.23
2022-08-26T12:10:48.386Z,37.60
2022-08-26T12:13:23.807Z,36.92
2022-08-26T12:15:55.658Z,40.47
2022-08-26T12:18:29.371Z,41.01
2022-08-26T12:21:01.701Z,41.55
2022-08-26T12:23:42.103Z,39.98
2022-08-26T12:26:20.084Z,38.41
2022-08-26T12:28:52.784Z,38.06
2022-08-26T12:31:32.614Z,38.63
2022-08-26T12:34:02.379Z,38.14
2022-08-26T12:36:33.777Z,36.00
2022-08-26T12:39:12.931Z,37.21
2022-08-26T12:41:47.741Z,37.02
2022-08-26T12:44:38.074Z,36.14
2022-08-26T12:47:13.321Z,34.54
2022-08-26T12:49:46.503Z,30.14
2022-08-26T12:52:30.855Z,29.95
2022-08-26T12:55:03.433Z,31.02
2022-08-26T12:57:36.075Z,29.96
2022-08-26T13:00:31.100Z,26.41
2022-08-26T13:02:59.757Z,26.92
2022-08-26T13:05:48.678Z,28.20
2022-08-26T13:08:26.469Z,32.58
2022-08-26T13:11:10.253Z,31.80
2022-08-26T13:13:40.420Z,29.95
2022-08-26T13:16:08.538Z,30.36
2022-08-26T13:18:36.817Z,29.65
2022-08-26T13:21:10.811Z,28.78
2022-08-26T13:23:42.401Z,28.89
2022-08-26T13:26:12.102Z,29.14
2022-08-26T13:28:40.512Z,29.40
2022-08-26T13:31:09.978Z,29.17
2022-08-26T13:33:39.273Z,27.74
2022-08-26T13:36:08.727Z,27.11
2022-08-26T13:38:36.852Z,26.30
2022-08-26T13:41:05.895Z,27.45
2022-08-26T13:43:35.722Z,30.00
2022-08-26T13:46:04.098Z,32.24
2022-08-26T13:48:34.192Z,32.39
2022-08-26T13:51:03.513Z,30.50
2022-08-26T13:53:37.240Z,30.99
2022-08-26T13:56:08.035Z,31.50
2022-08-26T13:58:39.739Z,31.00
2022-08-26T14:01:08.720Z,31.53
2022-08-26T14:03:36.749Z,30.97
2022-08-26T14:06:07.575Z,33.98
2022-08-26T14:08:37.001Z,37.15
2022-08-26T14:11:06.884Z,38.27
2022-08-26T14:13:35.376Z,38.60
2022-08-26T14:16:08.928Z,42.52
2022-08-26T14:18:45.192Z,49.88
2022-08-26T14:21:15.707Z,51.08
2022-08-26T14:23:45.364Z,51.16
2022-08-26T14:26:16.833Z,49.59
2022-08-26T14:28:56.997Z,50.84
2022-08-26T14:31:27.232Z,50.66
2022-08-26T14:33:57.700Z,50.39
2022-08-26T14:36:32.624Z,49.78
2022-08-26T14:39:04.414Z,50.45
2022-08-26T14:41:33.666Z,50.91
2022-08-26T14:44:05.107Z,49.98
2022-08-26T14:46:42.169Z,48.38
2022-08-26T14:49:12.555Z,43.29
2022-08-26T14:51:41.022Z,42.25
2022-08-26T14:54:14.847Z,35.31
2022-08-26T14:56:53.445Z,37.32
2022-08-26T14:59:24.664Z,36.31
2022-08-26T15:01:54.869Z,31.90
2022-08-26T15:04:24.935Z,33.21
2022-08-26T15:06:53.785Z,37.35
2022-08-26T15:09:22.379Z,33.44
2022-08-26T15:11:53.204Z,32.66
2022-08-26T15:14:22.237Z,38.56
2022-08-26T15:16:52.712Z,40.13
2022-08-26T15:19:23.940Z,43.41
2022-08-26T15:21:53.188Z,45.77
2022-08-26T15:24:24.911Z,47.27
2022-08-26T15:26:53.754Z,49.24
2022-08-26T15:29:23.752Z,49.95
2022-08-26T15:31:51.989Z,47.72
2022-08-26T15:34:26.322Z,50.68
2022-08-26T15:36:55.217Z,52.43
2022-08-26T15:39:23.621Z,49.32
2022-08-26T15:41:52.360Z,48.26
2022-08-26T15:44:20.929Z,44.60
2022-08-26T15:46:52.473Z,46.78
2022-08-26T15:49:24.707Z,50.31
2022-08-26T15:51:54.666Z,53.54
2022-08-26T15:54:24.439Z,52.64
2022-08-26T15:56:53.184Z,48.08
2022-08-26T15:59:23.043Z,49.96
2022-08-26T16:01:52.173Z,53.31
2022-08-26T16:04:20.680Z,52.59
2022-08-26T16:06:52.364Z,48.20
2022-08-26T16:09:24.266Z,51.47
2022-08-26T16:11:52.906Z,51.50
2022-08-26T16:14:21.112Z,56.24
2022-08-26T16:16:50.789Z,55.44
2022-08-26T16:19:19.625Z,56.38
2022-08-26T16:21:48.188Z,57.48
2022-08-26T16:24:29.769Z,56.29
2022-08-26T16:26:58.959Z,56.66
2022-08-26T16:29:27.858Z,57.48
2022-08-26T16:31:56.021Z,58.50
2022-08-26T16:34:24.356Z,59.32
2022-08-26T16:36:53.023Z,58.93
2022-08-26T16:39:23.039Z,59.31
2022-08-26T16:41:51.008Z,59.29
2022-08-26T16:44:19.535Z,58.47
2022-08-26T16:46:48.233Z,58.74
2022-08-26T16:49:18.812Z,58.98
2022-08-26T16:51:47.075Z,58.77
2022-08-26T16:54:15.679Z,59.65
2022-08-26T16:56:45.530Z,59.34
2022-08-26T16:59:13.928Z,60.11
2022-08-26T17:01:42.513Z,60.08
2022-08-26T17:04:11.424Z,59.65
2022-08-26T17:06:40.162Z,59.46
2022-08-26T17:09:08.684Z,59.69
2022-08-26T17:11:37.881Z,60.03
2022-08-26T17:14:07.787Z,60.65
2022-08-26T17:16:35.831Z,61.07
2022-08-26T17:19:05.950Z,60.64
2022-08-26T17:21:36.874Z,60.99
2022-08-26T17:24:06.667Z,61.35
2022-08-26T17:26:37.912Z,61.36
2022-08-26T17:29:08.612Z,61.57
2022-08-26T17:31:37.532Z,62.32
2022-08-26T17:34:08.839Z,62.59
2022-08-26T17:36:37.043Z,63.00
2022-08-26T17:39:07.120Z,63.63
2022-08-26T17:41:35.653Z,63.48
2022-08-26T17:44:04.505Z,63.26
2022-08-26T17:46:38.194Z,63.23
2022-08-26T17:49:10.165Z,63.61
2022-08-26T17:51:38.110Z,63.65
2022-08-26T17:54:07.307Z,63.70
2022-08-26T17:56:35.714Z,64.01
2022-08-26T17:59:04.283Z,64.22
2022-08-26T18:01:37.613Z,64.22
2022-08-26T18:04:07.406Z,64.16
2022-08-26T18:06:35.882Z,64.23
2022-08-26T18:09:04.327Z,63.99
2022-08-26T18:11:34.821Z,63.99
2022-08-26T18:14:03.145Z,64.51
2022-08-26T18:16:31.817Z,64.58
2022-08-26T18:19:01.638Z,64.76
2022-08-26T18:21:30.679Z,65.08
2022-08-26T18:23:59.136Z,65.33
2022-08-26T18:26:29.105Z,65.54
2022-08-26T18:28:57.475Z,65.72
2022-08-26T18:31:26.746Z,65.92
2022-08-26T18:33:55.779Z,65.98
2022-08-26T18:36:30.132Z,66.60
2022-08-26T18:38:58.785Z,66.96
2022-08-26T18:41:29.654Z,67.26
2022-08-26T18:43:59.473Z,67.12
2022-08-26T18:46:29.416Z,67.50
2022-08-26T18:48:59.235Z,67.91
2022-08-26T18:51:34.526Z,67.87
2022-08-26T18:54:05.556Z,68.07
2022-08-26T18:56:34.697Z,68.29
2022-08-26T18:59:04.703Z,68.24
2022-08-26T19:01:33.374Z,68.53
2022-08-26T19:04:04.301Z,68.31
2022-08-26T19:06:35.535Z,68.80
2022-08-26T19:09:04.459Z,69.00
2022-08-26T19:11:38.347Z,69.14
2022-08-26T19:14:13.671Z,69.04
2022-08-26T19:16:43.505Z,69.09
2022-08-26T19:19:11.814Z,69.53
2022-08-26T19:21:41.332Z,69.55
2022-08-26T19:24:15.274Z,69.60
2022-08-26T19:26:43.910Z,69.60
2022-08-26T19:29:12.318Z,69.63
2022-08-26T19:31:42.229Z,70.07
2022-08-26T19:34:12.824Z,70.67
2022-08-26T19:36:44.823Z,70.21
2022-08-26T19:39:15.025Z,70.32
2022-08-26T19:41:44.225Z,70.03
2022-08-26T19:44:34.313Z,70.39
2022-08-26T19:47:03.592Z,70.85
2022-08-26T19:49:32.075Z,71.14
2022-08-26T19:52:03.910Z,71.50
2022-08-26T19:54:32.115Z,71.88
2022-08-26T19:57:00.847Z,72.07
2022-08-26T19:59:29.284Z,71.41
2022-08-26T20:02:01.064Z,72.12
2022-08-26T20:04:30.258Z,72.39
2022-08-26T20:06:58.828Z,72.37
2022-08-26T20:09:31.143Z,72.65
2022-08-26T20:12:00.181Z,72.74
2022-08-26T20:14:30.612Z,72.51
2022-08-26T20:16:58.952Z,72.78
2022-08-26T20:19:45.507Z,72.05
2022-08-26T20:22:20.102Z,71.77
2022-08-26T20:24:49.614Z,71.57
2022-08-26T20:27:17.864Z,72.07
2022-08-26T20:29:46.234Z,72.09
2022-08-26T20:32:14.921Z,71.74
2022-08-26T20:34:42.991Z,72.50
2022-08-26T20:37:12.404Z,71.57
2022-08-26T20:39:40.291Z,71.13
2022-08-26T20:42:20.174Z,70.65
2022-08-26T20:44:54.500Z,71.03
2022-08-26T20:47:23.784Z,71.11
2022-08-26T20:49:52.678Z,71.62
2022-08-26T20:52:21.430Z,71.36
2022-08-26T20:54:49.275Z,71.68
2022-08-26T20:57:18.937Z,71.55
2022-08-26T20:59:47.362Z,71.82
2022-08-26T21:02:16.583Z,71.80
2022-08-26T21:04:44.800Z,71.70
2022-08-26T21:07:13.230Z,72.75
2022-08-26T21:09:41.375Z,73.02
2022-08-26T21:12:10.145Z,73.07
2022-08-26T21:14:39.630Z,72.87
2022-08-26T21:17:07.917Z,73.31
2022-08-26T21:19:35.662Z,73.51
2022-08-26T21:22:04.136Z,73.24
2022-08-26T21:24:32.338Z,73.50
2022-08-26T21:27:00.758Z,74.39
2022-08-26T21:29:29.065Z,75.11
2022-08-26T21:31:58.910Z,75.78
2022-08-26T21:34:27.158Z,76.07
2022-08-26T21:36:55.141Z,76.54
2022-08-26T21:39:23.448Z,76.72
2022-08-26T21:41:51.533Z,77.14
2022-08-26T21:44:19.473Z,77.50
2022-08-26T21:46:49.167Z,77.23
2022-08-26T21:49:18.665Z,77.86
2022-08-26T21:51:49.355Z,77.62
2022-08-26T21:54:18.388Z,77.72
2022-08-26T21:56:47.901Z,77.84
2022-08-26T21:59:17.417Z,77.94
2022-08-26T22:01:45.488Z,78.42
2022-08-26T22:04:13.603Z,78.29
2022-08-26T22:06:45.488Z,78.35
2022-08-26T22:09:14.958Z,78.24
2022-08-26T22:11:42.995Z,78.09
2022-08-26T22:14:11.393Z,78.21
2022-08-26T22:16:40.033Z,78.64
2022-08-26T22:19:12.279Z,78.50
2022-08-26T22:21:46.954Z,78.65
2022-08-26T22:24:14.721Z,78.44
2022-08-26T22:26:43.093Z,78.27
2022-08-26T22:29:11.028Z,78.18
2022-08-26T22:31:40.214Z,78.30
2022-08-26T22:34:11.428Z,78.24
2022-08-26T22:36:43.985Z,78.25
2022-08-26T22:39:16.266Z,78.57
2022-08-26T22:41:45.441Z,78.66
2022-08-26T22:44:14.006Z,78.74
2022-08-26T22:46:44.005Z,77.63
2022-08-26T22:49:15.778Z,78.55
2022-08-26T22:51:44.273Z,79.55
2022-08-26T22:54:14.448Z,79.73
2022-08-26T22:56:43.636Z,80.16
2022-08-26T22:59:12.399Z,80.25
2022-08-26T23:01:44.173Z,79.65
2022-08-26T23:04:12.913Z,79.88
2022-08-26T23:06:47.617Z,78.89
2022-08-26T23:09:18.771Z,79.48
2022-08-26T23:11:47.864Z,79.71
2022-08-26T23:14:20.210Z,79.41
2022-08-26T23:16:48.702Z,79.69
2022-08-26T23:19:19.256Z,80.15
2022-08-26T23:21:47.616Z,79.97
2022-08-26T23:24:18.079Z,80.55
2022-08-26T23:26:47.148Z,80.73
2022-08-26T23:29:15.528Z,80.98
2022-08-26T23:31:44.312Z,81.08
2022-08-26T23:34:30.382Z,81.33
2022-08-26T23:36:59.323Z,81.86
2022-08-26T23:39:32.842Z,82.24
2022-08-26T23:42:01.906Z,81.73
2022-08-26T23:44:30.572Z,82.08
2022-08-26T23:46:59.180Z,83.12
2022-08-26T23:49:27.544Z,83.62
2022-08-26T23:52:12.972Z,83.09
2022-08-26T23:54:42.472Z,83.21
2022-08-26T23:57:11.463Z,83.43
2022-08-26T23:59:40.113Z,83.99
